Latest Weather Observations for Jandakot

IDW60801

Issued at 4:02 pm WST Thursday 30 July 2015 (issued every 30 minutes, with the page automatically refreshed every 10 minutes)

About weather observations | Map of weather stations | Latest weather observations for WA | Other Formats
Station Details ID: 009172 Name: JANDAKOT AERO Lat: -32.10 Lon: 115.88 Height: 30.0 m
Data from the previous 72 hours. | See also: Recent months at Jandakot
Date/Time
WST
Temp
°C
App
Temp
°C
Dew
Point
Rel
Hum
%
Delta-T
°C
Wind Press
QNH
hPa
Press
MSL
hPa
Rain
since 9 am
mm
Dir
 
Spd
km/h
Gust
km/h
Spd
kts
Gust
kts
30/04:00pm 19.0 17.5 15.3 79 2.2 NNE 17 24 9 13 1017.2 1017.2 0.0
30/03:30pm 19.1 17.8 15.7 80 2.0 NNE 17 22 9 12 1016.9 1016.9 0.0
30/03:00pm 19.4 18.1 15.9 80 2.1 N 17 20 9 11 1017.2 1017.2 0.0
30/02:30pm 19.7 18.3 15.5 77 2.5 N 17 24 9 13 1017.7 1017.7 0.0
30/02:00pm 19.9 17.9 15.5 76 2.6 N 20 28 11 15 1017.4 1017.4 0.0
30/01:30pm 19.8 18.4 16.5 81 2.0 N 19 26 10 14 1017.8 1017.8 0.0
30/01:00pm 19.4 17.8 16.6 84 1.7 NNE 20 30 11 16 1018.4 1018.4 0.0
30/12:30pm 19.0 17.6 17.0 88 1.2 NNE 20 26 11 14 1018.9 1018.9 0.0
30/12:00pm 18.6 18.2 17.1 91 0.9 NNE 15 20 8 11 1019.6 1019.6 0.0
30/11:30am 18.7 18.1 16.7 88 1.2 NNE 15 20 8 11 1020.3 1020.3 0.0
30/11:00am 18.3 18.6 17.0 92 0.8 NE 11 17 6 9 1020.3 1020.3 0.0
30/10:30am 18.2 19.2 16.9 92 0.8 NE 7 11 4 6 1020.4 1020.4 0.0
30/10:00am 17.4 17.5 16.6 95 0.5 ENE 11 13 6 7 1020.3 1020.3 0.0
30/09:30am 16.9 17.3 16.2 96 0.4 ENE 9 11 5 6 1020.5 1020.5 0.0
30/09:00am 16.6 17.2 15.9 96 0.4 ENE 7 9 4 5 1020.7 1020.7 4.2
30/08:30am 16.2 16.3 15.5 96 0.4 E 9 11 5 6 1020.1 1020.1 4.2
30/08:00am 15.7 15.8 15.4 98 0.2 E 9 13 5 7 1019.9 1019.9 4.2
30/07:30am 15.1 15.0 14.9 99 0.1 E 9 11 5 6 1019.7 1019.7 4.2
30/07:00am 15.0 15.3 14.6 97 0.2 NE 6 7 3 4 1019.8 1019.8 4.2
30/06:30am 15.1 15.0 14.9 99 0.1 ENE 9 9 5 5 1019.5 1019.5 4.2
30/06:06am 14.9 15.0 14.5 97 0.2 ENE 7 9 4 5 1019.4 1019.4 4.2
30/06:00am 14.7 15.0 14.5 99 0.1 ENE 6 7 3 4 1019.5 1019.5 4.2
30/05:46am 14.6 16.1 14.6 100 0.0 CALM 0 7 0 4 1019.6 1019.6 4.2
30/05:30am 14.7 16.1 14.5 99 0.1 CALM 0 0 0 0 1019.7 1019.7 4.2
30/05:00am 15.0 15.2 14.8 99 0.1 ENE 7 9 4 5 1019.4 1019.4 4.2
30/04:49am 14.9 15.2 14.9 100 0.0 ENE 7 9 4 5 1019.4 1019.4 4.2
30/04:30am 14.5 14.2 14.3 99 0.1 NE 9 9 5 5 1019.4 1019.4 4.2
30/04:00am 14.8 15.2 14.8 100 0.0 NE 6 7 3 4 1019.9 1019.9 4.0
30/03:44am 14.5 14.5 14.3 99 0.1 NE 7 7 4 4 1020.1 1020.1 4.0
30/03:31am 14.5 14.8 14.5 100 0.0 NE 6 7 3 4 1020.0 1020.0 4.0
30/03:30am 14.6 14.9 14.4 99 0.1 NE 6 7 3 4 1020.0 1020.0 4.0
30/03:08am 14.6 14.7 14.4 99 0.1 NE 7 7 4 4 1019.9 1019.9 4.0
30/03:00am 14.8 15.0 14.6 99 0.1 NE 7 9 4 5 1019.9 1019.9 4.0
30/02:58am 14.8 15.0 14.6 99 0.1 NNE 7 9 4 5 1019.9 1019.9 4.0
30/02:30am 14.6 16.1 14.6 100 0.0 CALM 0 0 0 0 1020.1 1020.1 4.0
30/02:00am 14.5 14.6 14.5 100 0.0 NE 7 9 4 5 1020.2 1020.2 4.0
30/01:43am 13.9 13.4 13.7 99 0.1 NE 9 11 5 6 1020.2 1020.2 4.0
30/01:36am 13.7 13.1 13.5 99 0.1 NE 9 11 5 6 1020.1 1020.1 4.0
30/01:30am 13.8 13.3 13.8 100 0.0 E 9 11 5 6 1020.1 1020.1 4.0
30/01:16am 14.4 14.5 14.0 97 0.2 SE 6 11 3 6 1019.9 1019.9 4.0
30/01:02am 14.5 15.9 14.5 100 0.0 CALM 0 0 0 0 1020.0 1020.0 4.0
30/01:00am 14.6 16.1 14.6 100 0.0 CALM 0 6 0 3 1020.1 1020.1 4.0
30/12:53am 15.0 15.4 14.8 99 0.1 W 6 9 3 5 1020.3 1020.3 4.0
30/12:39am 15.0 15.4 14.8 99 0.1 SE 6 7 3 4 1020.2 1020.2 4.0
30/12:30am 14.6 16.1 14.6 100 0.0 CALM 0 0 0 0 1020.2 1020.2 4.0
30/12:21am 15.0 16.6 14.8 99 0.1 CALM 0 0 0 0 1020.2 1020.2 4.0
30/12:00am 15.2 15.1 14.9 98 0.2 ENE 9 9 5 5 1020.1 1020.1 4.0
 
Date/Time
WST
Temp
°C
App
Temp
°C
Dew
Point
Rel
Hum
%
Delta-T
°C
Wind Press
QNH
hPa
Press
MSL
hPa
Rain
since 9 am
mm
Dir
 
Spd
km/h
Gust
km/h
Spd
kts
Gust
kts
29/11:30pm 15.6 16.2 15.3 98 0.2 W 6 7 3 4 1020.0 1020.0 4.0
29/11:00pm 16.1 18.0 15.8 98 0.2 CALM 0 4 0 2 1020.5 1020.5 4.0
29/10:51pm 16.1 17.3 15.9 99 0.1 W 4 6 2 3 1020.5 1020.5 4.0
29/10:33pm 16.1 16.7 15.9 99 0.1 W 7 9 4 5 1020.5 1020.5 3.8
29/10:30pm 16.1 16.7 15.9 99 0.1 W 7 9 4 5 1020.5 1020.5 3.8
29/10:02pm 16.3 16.2 16.1 99 0.1 S 11 17 6 9 1020.2 1020.2 3.6
29/10:00pm 16.3 16.2 16.0 98 0.2 S 11 17 6 9 1020.1 1020.1 3.6
29/09:42pm 15.9 15.7 15.7 99 0.1 NW 11 24 6 13 1020.2 1020.2 2.6
29/09:30pm 15.2 15.7 14.9 98 0.2 ENE 6 7 3 4 1020.1 1020.1 0.0
29/09:00pm 14.9 14.6 14.5 97 0.2 NE 9 9 5 5 1019.9 1019.9 0.0
29/08:30pm 14.6 15.9 14.1 97 0.3 CALM 0 0 0 0 1020.2 1020.2 0.0
29/08:00pm 14.4 15.6 13.9 97 0.3 CALM 0 0 0 0 1020.1 1020.1 0.0
29/07:30pm 14.6 14.8 14.1 97 0.3 NE 6 6 3 3 1019.6 1019.6 0.0
29/07:00pm 15.2 16.3 14.5 96 0.4 N 2 7 1 4 1019.3 1019.3 0.0
29/06:30pm 15.8 16.1 14.9 94 0.5 N 7 9 4 5 1019.2 1019.2 0.0
29/06:00pm 17.3 17.9 15.9 91 0.8 NNW 7 7 4 4 1018.8 1018.8 0.0
29/05:30pm 17.8 18.1 16.1 90 1.0 NNW 9 13 5 7 1018.5 1018.5 0.0
29/05:00pm 18.5 18.9 16.3 87 1.3 NW 9 13 5 7 1018.3 1018.3 0.0
29/04:30pm 18.9 18.5 16.2 84 1.6 NW 13 17 7 9 1018.3 1018.3 0.0
29/04:00pm 19.0 18.2 16.1 83 1.7 NW 15 22 8 12 1018.4 1018.4 0.0
29/03:30pm 19.1 17.5 16.1 83 1.8 NNW 19 24 10 13 1018.2 1018.2 0.0
29/03:00pm 19.1 18.2 15.9 82 1.9 NW 15 20 8 11 1018.2 1018.2 0.0
29/02:30pm 18.8 17.3 15.2 79 2.1 NNW 17 24 9 13 1017.8 1017.8 0.0
29/02:00pm 18.9 17.9 15.5 80 2.0 N 15 20 8 11 1017.6 1017.6 0.0
29/01:30pm 18.9 17.2 15.7 82 1.9 NW 19 22 10 12 1018.0 1018.0 0.0
29/01:00pm 18.7 17.3 15.5 81 1.9 NNW 17 24 9 13 1018.1 1018.1 0.0
29/12:30pm 18.5 17.0 15.4 82 1.8 NNW 17 22 9 12 1018.7 1018.7 0.0
29/12:00pm 18.4 17.4 15.5 83 1.7 N 15 20 8 11 1018.8 1018.8 0.0
29/11:30am 18.0 16.9 15.4 85 1.5 N 15 20 8 11 1019.0 1019.0 0.0
29/11:00am 17.8 17.1 15.4 86 1.4 NNW 13 19 7 10 1019.0 1019.0 0.0
29/10:30am 17.1 16.0 15.4 90 1.0 N 15 19 8 10 1019.0 1019.0 0.0
29/10:00am 15.8 14.9 14.9 94 0.5 NNE 13 17 7 9 1019.0 1019.0 0.0
29/09:30am 14.8 14.1 14.3 97 0.3 NNE 11 15 6 8 1019.0 1019.0 0.0
29/09:00am 14.6 13.1 14.1 97 0.3 NNE 15 19 8 10 1018.8 1018.8 5.6
29/08:30am 14.0 13.1 13.6 97 0.2 NNE 11 15 6 8 1018.7 1018.7 5.6
29/08:26am 13.9 12.9 13.5 97 0.2 NNE 11 13 6 7 1018.8 1018.8 5.6
29/08:04am 13.6 11.8 13.2 97 0.2 NNE 15 17 8 9 1018.7 1018.7 5.6
29/08:00am 13.5 11.7 13.3 99 0.1 NNE 15 17 8 9 1018.7 1018.7 5.6
29/07:30am 13.1 11.5 12.7 97 0.2 NNE 13 17 7 9 1018.6 1018.6 5.6
29/07:03am 13.2 12.1 13.0 99 0.1 NNE 11 15 6 8 1018.5 1018.5 5.6
29/07:00am 13.2 12.1 13.0 99 0.1 NNE 11 13 6 7 1018.5 1018.5 5.6
29/06:44am 13.2 11.7 13.0 99 0.1 NNE 13 17 7 9 1018.4 1018.4 5.6
29/06:30am 13.1 11.5 12.9 99 0.1 N 13 15 7 8 1018.4 1018.4 4.6
29/06:16am 13.1 11.9 12.7 97 0.2 NNE 11 15 6 8 1018.1 1018.1 4.2
29/06:00am 12.9 11.6 12.5 97 0.2 NNE 11 13 6 7 1018.0 1018.0 3.8
29/05:55am 12.8 11.1 12.6 99 0.1 NNE 13 17 7 9 1017.9 1017.9 3.8
29/05:52am 12.8 11.1 12.4 97 0.2 NNE 13 19 7 10 1017.9 1017.9 3.8
29/05:33am 12.7 11.3 12.3 97 0.2 NNE 11 15 6 8 1017.8 1017.8 3.8
29/05:30am 12.7 11.3 12.3 97 0.2 NNE 11 15 6 8 1017.8 1017.8 3.8
29/05:00am 12.5 11.1 12.1 97 0.2 N 11 13 6 7 1017.8 1017.8 3.8
29/04:35am 12.5 11.1 12.1 97 0.2 NNE 11 13 6 7 1017.5 1017.5 3.8
29/04:32am 12.5 11.1 12.1 97 0.2 NNE 11 13 6 7 1017.5 1017.5 3.8
29/04:30am 12.5 11.0 11.9 96 0.3 NNE 11 13 6 7 1017.5 1017.5 3.8
29/04:19am 12.4 11.3 12.0 97 0.2 NNE 9 11 5 6 1017.4 1017.4 3.8
29/04:09am 12.4 10.9 12.0 97 0.2 NNE 11 15 6 8 1017.6 1017.6 3.8
29/04:00am 12.4 10.6 12.0 97 0.2 NNE 13 15 7 8 1017.6 1017.6 3.8
29/03:30am 12.2 11.1 11.8 97 0.2 NNE 9 13 5 7 1017.7 1017.7 3.2
29/03:18am 12.2 10.6 11.6 96 0.3 NNE 11 15 6 8 1017.7 1017.7 2.6
29/03:00am 12.3 9.8 11.2 93 0.6 NNE 15 19 8 10 1017.4 1017.4 2.6
29/02:30am 12.1 10.0 11.3 95 0.4 NNE 13 15 7 8 1017.5 1017.5 2.6
29/02:00am 11.8 9.7 11.0 95 0.4 NNE 13 15 7 8 1017.4 1017.4 2.6
29/01:30am 11.1 10.0 10.7 97 0.2 N 7 9 4 5 1017.5 1017.5 2.6
29/01:00am 10.1 10.1 9.7 97 0.2 CALM 0 0 0 0 1017.3 1017.3 2.6
29/12:30am 9.6 9.4 9.2 97 0.2 CALM 0 0 0 0 1017.5 1017.5 2.6
29/12:00am 9.8 7.9 9.2 96 0.3 ENE 9 11 5 6 1017.4 1017.4 2.6
 
Date/Time
WST
Temp
°C
App
Temp
°C
Dew
Point
Rel
Hum
%
Delta-T
°C
Wind Press
QNH
hPa
Press
MSL
hPa
Rain
since 9 am
mm
Dir
 
Spd
km/h
Gust
km/h
Spd
kts
Gust
kts
28/11:30pm 9.5 7.9 8.9 96 0.3 NE 7 9 4 5 1017.7 1017.7 2.6
28/11:00pm 10.2 8.8 9.6 96 0.3 NNE 7 9 4 5 1017.6 1017.6 2.6
28/10:30pm 10.8 9.7 9.8 93 0.5 NNE 6 7 3 4 1017.4 1017.4 2.6
28/10:00pm 11.3 10.2 10.1 92 0.6 NE 6 7 3 4 1017.1 1017.1 2.6
28/09:30pm 11.9 10.8 10.5 91 0.7 E 7 11 4 6 1017.0 1017.0 2.6
28/09:00pm 13.0 11.7 11.1 88 1.0 E 9 11 5 6 1017.0 1017.0 2.6
28/08:30pm 13.5 12.6 11.2 86 1.2 E 7 11 4 6 1016.9 1016.9 2.6
28/08:00pm 13.7 12.4 11.4 86 1.2 SE 9 11 5 6 1016.8 1016.8 2.6
28/07:30pm 13.9 13.1 11.7 86 1.2 SE 7 9 4 5 1016.5 1016.5 2.6
28/07:00pm 14.2 13.3 11.4 83 1.5 ENE 7 11 4 6 1016.1 1016.1 2.6
28/06:30pm 14.3 13.5 11.7 84 1.4 ESE 7 9 4 5 1015.9 1015.9 2.6
28/06:00pm 14.6 13.5 11.8 83 1.5 ENE 9 13 5 7 1015.6 1015.6 2.6
28/05:30pm 14.8 12.8 11.4 80 1.8 NE 13 17 7 9 1015.3 1015.3 2.6
28/05:00pm 15.0 12.6 11.5 79 1.9 NE 15 20 8 11 1015.2 1015.2 2.6
28/04:30pm 15.3 12.1 11.4 77 2.1 NE 19 26 10 14 1015.0 1015.0 2.6
28/04:00pm 15.1 11.8 11.6 79 1.9 NNE 20 30 11 16 1014.9 1014.9 2.6
28/03:30pm 15.1 11.0 11.6 79 1.9 NNE 24 32 13 17 1014.8 1014.8 2.6
28/03:00pm 14.9 11.2 11.5 80 1.8 NNE 22 32 12 17 1014.9 1014.9 2.6
28/02:30pm 14.7 10.2 11.3 80 1.8 NNE 26 32 14 17 1014.9 1014.9 2.6
28/02:00pm 14.4 11.2 12.0 85 1.3 N 20 28 11 15 1015.4 1015.4 2.6
28/01:30pm 14.0 9.3 12.0 88 1.1 NNE 28 39 15 21 1014.7 1014.7 2.2
28/01:00pm 14.1 10.6 12.1 88 1.1 N 22 30 12 16 1016.2 1016.2 2.0
28/12:43pm 13.5 9.9 12.0 91 0.8 NNE 22 32 12 17 1015.6 1015.6 2.0
28/12:30pm 13.6 10.0 11.7 88 1.0 NNE 22 33 12 18 1016.3 1016.3 1.8
28/12:28pm 13.5 9.9 11.8 89 0.9 NNE 22 33 12 18 1015.7 1015.7 1.8
28/12:00pm 13.4 8.7 12.1 92 0.7 NNE 28 35 15 19 1016.6 1016.6 1.8
28/11:30am 13.0 8.2 11.7 92 0.7 NNE 28 35 15 19 1017.7 1017.7 1.8
28/11:00am 12.8 9.0 11.3 91 0.8 NNE 22 30 12 16 1018.4 1018.4 1.2
28/10:30am 12.5 9.3 11.2 92 0.7 NNE 19 24 10 13 1018.8 1018.8 1.0
28/10:00am 12.3 9.0 10.8 90 0.8 NNE 19 28 10 15 1019.5 1019.5 0.8
28/09:30am 12.2 8.4 9.8 85 1.2 NNE 20 28 11 15 1019.8 1019.8 0.2
28/09:00am 12.2 8.4 9.2 82 1.5 NNE 19 24 10 13 1019.9 1019.9 0.6
28/08:30am 13.1 8.1 8.0 71 2.5 N 24 35 13 19 1020.2 1020.2 0.6
28/08:00am 14.0 9.4 6.3 60 3.7 NNE 20 26 11 14 1019.9 1019.9 0.6
28/07:30am 13.6 9.0 6.3 61 3.5 NE 20 26 11 14 1019.3 1019.3 0.6
28/07:00am 13.1 10.3 6.9 66 3.0 NE 11 15 6 8 1019.9 1019.9 0.6
28/06:30am 11.9 9.9 8.7 81 1.6 NE 9 15 5 8 1019.9 1019.9 0.6
28/06:00am 11.8 10.0 9.4 85 1.2 NE 9 11 5 6 1020.0 1020.0 0.4
28/05:30am 12.0 10.8 9.4 84 1.3 E 6 7 3 4 1020.2 1020.2 0.4
28/05:00am 13.2 11.2 7.0 66 3.0 ENE 7 9 4 5 1020.2 1020.2 0.4
28/04:30am 13.8 10.4 5.7 58 3.8 NE 13 17 7 9 1020.8 1020.8 0.2
28/04:00am 14.1 10.3 5.9 57 3.9 N 15 20 8 11 1021.5 1021.5 0.2
28/03:30am 13.0 10.0 7.9 71 2.5 NNE 13 15 7 8 1021.7 1021.7 0.2
28/03:00am 13.2 10.0 7.0 66 3.0 NE 13 17 7 9 1021.9 1021.9 0.2
28/02:30am 12.9 10.6 8.9 76 2.0 NE 11 13 6 7 1022.6 1022.6 0.2
28/02:00am 13.9 11.0 6.4 60 3.6 NE 11 13 6 7 1022.6 1022.6 0.0
28/01:30am 15.0 11.3 4.7 50 4.8 ENE 13 20 7 11 1022.2 1022.2 0.0
28/01:00am 15.5 10.4 3.1 43 5.6 NE 19 24 10 13 1022.6 1022.6 0.0
28/12:30am 15.5 10.8 3.1 43 5.6 NE 17 24 9 13 1023.1 1023.1 0.0
28/12:00am 14.5 10.8 4.3 50 4.7 NE 13 15 7 8 1023.2 1023.2 0.0
 
Date/Time
WST
Temp
°C
App
Temp
°C
Dew
Point
Rel
Hum
%
Delta-T
°C
Wind Press
QNH
hPa
Press
MSL
hPa
Rain
since 9 am
mm
Dir
 
Spd
km/h
Gust
km/h
Spd
kts
Gust
kts
27/11:30pm 14.5 10.3 3.7 48 4.9 NE 15 19 8 10 1023.2 1023.2 0.0
27/11:00pm 12.7 9.3 5.9 63 3.2 ENE 13 15 7 8 1023.7 1023.7 0.0
27/10:30pm 12.0 9.1 6.7 70 2.5 E 11 13 6 7 1024.2 1024.2 0.0
27/10:00pm 11.3 10.9 8.2 81 1.5 CALM 0 0 0 0 1024.4 1024.4 0.0
27/09:30pm 12.2 11.6 7.2 71 2.4 CALM 0 0 0 0 1024.5 1024.5 0.0
27/09:00pm 11.8 9.4 7.0 72 2.3 E 9 13 5 7 1024.1 1024.1 0.0
27/08:30pm 12.6 10.5 6.7 67 2.8 E 7 9 4 5 1024.2 1024.2 0.0
27/08:00pm 12.3 9.9 7.1 70 2.5 E 9 11 5 6 1024.6 1024.6 0.0
27/07:30pm 12.7 9.9 6.8 67 2.8 E 11 13 6 7 1024.9 1024.9 0.0
27/07:00pm 13.4 10.9 6.7 64 3.2 ESE 9 11 5 6 1025.2 1025.2 0.0
27/06:30pm 12.8 10.1 7.2 69 2.7 ESE 11 15 6 8 1024.9 1024.9 0.0
27/06:00pm 13.3 10.7 7.6 68 2.8 SE 11 13 6 7 1025.2 1025.2 0.0
27/05:30pm 15.7 13.8 7.6 58 4.0 ESE 7 9 4 5 1025.3 1025.3 0.0
27/05:00pm 17.4 14.3 5.6 45 5.7 ENE 11 15 6 8 1025.1 1025.1 0.0
27/04:30pm 18.6 13.7 4.2 38 6.8 NE 19 22 10 12 1024.8 1024.8 0.0

Other Formats:

Comma delimited format used in spreadsheet applications
http://www.bom.gov.au/fwo/IDW60801/IDW60801.94609.axf

JavaScript Object Notation format (JSON) in row-major order
http://www.bom.gov.au/fwo/IDW60801/IDW60801.94609.json